createdAt,value
2022-10-31T00:01:39.843Z,81.98
2022-10-31T00:04:25.102Z,81.98
2022-10-31T00:07:10.549Z,82.13
2022-10-31T00:09:55.887Z,82.04
2022-10-31T00:12:41.658Z,81.57
2022-10-31T00:15:27.233Z,81.92
2022-10-31T00:18:12.830Z,82.18
2022-10-31T00:21:02.928Z,82.33
2022-10-31T00:23:48.996Z,81.83
2022-10-31T00:26:35.225Z,81.92
2022-10-31T00:29:20.983Z,82.23
2022-10-31T00:32:06.597Z,81.85
2022-10-31T00:34:53.537Z,82.33
2022-10-31T00:37:39.059Z,81.96
2022-10-31T00:40:24.447Z,82.09
2022-10-31T00:45:57.689Z,82.33
2022-10-31T00:48:43.511Z,82.30
2022-10-31T00:51:29.017Z,82.29
2022-10-31T00:54:14.445Z,82.21
2022-10-31T00:57:00.385Z,82.31
2022-10-31T00:59:45.865Z,81.96
2022-10-31T01:02:31.325Z,81.90
2022-10-31T01:05:17.310Z,82.27
2022-10-31T01:08:04.841Z,82.25
2022-10-31T01:11:00.235Z,82.08
2022-10-31T01:13:46.710Z,82.17
2022-10-31T01:16:32.310Z,82.21
2022-10-31T01:19:18.008Z,82.57
2022-10-31T01:22:03.611Z,82.51
2022-10-31T01:24:49.164Z,82.44
2022-10-31T01:27:34.670Z,82.39
2022-10-31T01:30:20.417Z,82.43
2022-10-31T01:33:06.058Z,82.29
2022-10-31T01:35:51.869Z,82.17
2022-10-31T01:38:37.624Z,82.18
2022-10-31T01:41:26.453Z,82.16
2022-10-31T01:44:14.879Z,82.31
2022-10-31T01:47:06.565Z,82.48
2022-10-31T01:50:01.356Z,82.58
2022-10-31T01:52:51.399Z,82.37
2022-10-31T01:55:41.474Z,82.47
2022-10-31T01:58:29.643Z,82.47
2022-10-31T02:01:17.849Z,82.47
2022-10-31T02:04:05.123Z,82.55
2022-10-31T02:06:53.905Z,82.44
2022-10-31T02:09:41.700Z,82.43
2022-10-31T02:12:28.098Z,82.76
2022-10-31T02:15:17.832Z,82.60
2022-10-31T02:18:04.388Z,82.39
2022-10-31T02:21:03.745Z,82.66
2022-10-31T02:24:17.867Z,82.43
2022-10-31T02:27:33.677Z,82.53
2022-10-31T02:30:24.693Z,82.68
2022-10-31T02:33:27.449Z,82.61
2022-10-31T02:36:28.204Z,82.58
2022-10-31T02:39:32.199Z,82.81
2022-10-31T02:42:33.015Z,82.57
2022-10-31T02:45:34.072Z,82.39
2022-10-31T02:48:23.018Z,82.52
2022-10-31T02:51:11.115Z,83.03
2022-10-31T02:53:56.723Z,82.75
2022-10-31T02:56:41.965Z,82.80
2022-10-31T02:59:31.736Z,82.79
2022-10-31T03:02:33.890Z,82.76
2022-10-31T03:05:37.684Z,83.20
2022-10-31T03:08:39.137Z,82.97
2022-10-31T03:11:30.984Z,83.13
2022-10-31T03:14:25.249Z,83.07
2022-10-31T03:17:26.881Z,83.13
2022-10-31T03:20:12.379Z,82.96
2022-10-31T03:23:00.709Z,82.74
2022-10-31T03:25:48.518Z,83.07
2022-10-31T03:28:46.524Z,82.55
2022-10-31T03:31:37.796Z,82.96
2022-10-31T03:34:25.580Z,82.76
2022-10-31T03:37:15.174Z,83.09
2022-10-31T03:40:03.709Z,83.07
2022-10-31T03:43:01.581Z,83.19
2022-10-31T03:45:48.302Z,83.09
2022-10-31T03:48:34.802Z,83.27
2022-10-31T03:51:26.224Z,83.40
2022-10-31T03:54:32.231Z,83.25
2022-10-31T03:57:23.790Z,83.12
2022-10-31T04:00:12.232Z,83.19
2022-10-31T04:03:09.952Z,83.41
2022-10-31T04:06:01.586Z,83.06
2022-10-31T04:09:00.885Z,82.97
2022-10-31T04:11:53.553Z,83.27
2022-10-31T04:15:10.927Z,83.06
2022-10-31T04:18:00.650Z,82.85
2022-10-31T04:20:49.676Z,83.15
2022-10-31T04:23:37.319Z,82.99
2022-10-31T04:26:36.622Z,82.64
2022-10-31T04:29:22.499Z,82.93
2022-10-31T04:32:07.911Z,82.78
2022-10-31T04:34:53.373Z,82.73
2022-10-31T04:37:38.700Z,82.44
2022-10-31T04:40:24.209Z,83.18
2022-10-31T04:43:28.716Z,83.05
2022-10-31T04:46:14.109Z,83.07
2022-10-31T04:48:59.549Z,83.10
2022-10-31T04:51:45.554Z,82.87
2022-10-31T04:54:32.932Z,83.13
2022-10-31T04:57:45.735Z,83.37
2022-10-31T05:00:32.289Z,83.28
2022-10-31T05:03:17.763Z,83.39
2022-10-31T05:06:03.117Z,83.22
2022-10-31T05:08:48.678Z,83.01
2022-10-31T05:11:34.259Z,83.24
2022-10-31T05:14:31.886Z,82.87
2022-10-31T05:17:39.906Z,83.12
2022-10-31T05:20:51.669Z,83.13
2022-10-31T05:23:53.349Z,83.03
2022-10-31T05:26:41.539Z,83.22
2022-10-31T05:29:28.816Z,83.21
2022-10-31T05:32:14.397Z,83.47
2022-10-31T05:35:37.968Z,83.15
2022-10-31T05:38:46.463Z,83.00
2022-10-31T05:41:40.331Z,83.19
2022-10-31T05:44:33.289Z,83.56
2022-10-31T05:47:30.837Z,83.66
2022-10-31T05:50:16.420Z,83.46
2022-10-31T05:53:06.879Z,83.76
2022-10-31T05:55:57.158Z,83.63
2022-10-31T05:58:42.695Z,83.45
2022-10-31T06:01:28.217Z,83.51
2022-10-31T06:04:14.460Z,83.67
2022-10-31T06:07:01.654Z,83.35
2022-10-31T06:09:46.896Z,83.27
2022-10-31T06:12:32.906Z,83.55
2022-10-31T06:15:39.297Z,83.47
2022-10-31T06:18:26.742Z,83.47
2022-10-31T06:21:16.396Z,83.34
2022-10-31T06:24:05.473Z,83.50
2022-10-31T06:27:27.001Z,83.93
2022-10-31T06:30:13.391Z,83.63
2022-10-31T06:33:06.042Z,83.64
2022-10-31T06:35:54.389Z,83.90
2022-10-31T06:38:40.296Z,83.65
2022-10-31T06:41:27.774Z,83.58
2022-10-31T06:44:13.195Z,83.25
2022-10-31T06:47:13.786Z,83.84
2022-10-31T06:49:59.243Z,83.63
2022-10-31T06:52:54.248Z,83.72
2022-10-31T06:55:39.897Z,83.87
2022-10-31T06:58:27.404Z,83.97
2022-10-31T07:01:18.025Z,84.04
2022-10-31T07:04:03.584Z,84.00
2022-10-31T07:06:53.801Z,83.82
2022-10-31T07:09:39.445Z,84.08
2022-10-31T07:12:26.473Z,84.32
2022-10-31T07:15:17.141Z,84.41
2022-10-31T07:18:04.696Z,84.27
2022-10-31T07:20:50.277Z,84.36
2022-10-31T07:23:37.304Z,84.72
2022-10-31T07:29:51.357Z,84.59
2022-10-31T07:32:44.620Z,84.53
2022-10-31T07:35:32.677Z,84.83
2022-10-31T07:38:18.824Z,85.02
2022-10-31T07:41:04.794Z,84.77
2022-10-31T07:47:05.912Z,84.77
2022-10-31T07:50:14.277Z,84.61
2022-10-31T07:53:38.502Z,85.36
2022-10-31T07:56:31.847Z,84.80
2022-10-31T07:59:17.256Z,85.37
2022-10-31T08:02:02.809Z,85.31
2022-10-31T08:04:51.261Z,85.26
2022-10-31T08:07:48.520Z,84.83
2022-10-31T08:10:38.995Z,84.63
2022-10-31T08:13:24.410Z,84.92
2022-10-31T08:16:10.440Z,85.33
2022-10-31T08:19:04.150Z,84.73
2022-10-31T08:21:56.881Z,84.43
2022-10-31T08:24:42.242Z,84.94
2022-10-31T08:27:27.695Z,84.34
2022-10-31T08:30:16.092Z,84.33
2022-10-31T08:33:16.582Z,84.11
2022-10-31T08:36:28.448Z,84.64
2022-10-31T08:39:22.643Z,84.50
2022-10-31T08:42:09.143Z,84.68
2022-10-31T08:44:54.557Z,84.27
2022-10-31T08:47:41.192Z,84.15
2022-10-31T08:50:27.970Z,84.12
2022-10-31T08:53:18.787Z,84.09
2022-10-31T08:56:09.002Z,83.71
2022-10-31T08:58:55.410Z,83.91
2022-10-31T09:01:50.774Z,83.63
2022-10-31T09:04:36.846Z,83.47
2022-10-31T09:07:22.137Z,83.76
2022-10-31T09:10:07.837Z,83.31
2022-10-31T09:12:59.785Z,83.40
2022-10-31T09:16:17.392Z,82.68
2022-10-31T09:19:05.199Z,82.64
2022-10-31T09:21:55.367Z,82.94
2022-10-31T09:24:40.939Z,82.81
2022-10-31T09:27:26.270Z,82.57
2022-10-31T09:30:14.381Z,81.88
2022-10-31T09:33:07.973Z,82.06
2022-10-31T09:35:54.032Z,81.45
2022-10-31T09:38:39.418Z,81.50
2022-10-31T09:41:43.678Z,81.52
2022-10-31T09:44:47.323Z,81.41
2022-10-31T09:48:04.242Z,81.23
2022-10-31T09:51:01.565Z,81.76
2022-10-31T09:54:21.735Z,80.90
2022-10-31T09:57:13.564Z,80.72
2022-10-31T10:00:00.384Z,80.61
2022-10-31T10:02:56.214Z,80.16
2022-10-31T10:05:46.336Z,80.46
2022-10-31T10:08:39.674Z,80.09
2022-10-31T10:12:02.484Z,79.83
2022-10-31T10:15:16.792Z,79.35
2022-10-31T10:18:45.708Z,79.86
2022-10-31T10:21:52.454Z,79.56
2022-10-31T10:24:53.192Z,79.33
2022-10-31T10:27:58.671Z,79.22
2022-10-31T10:31:08.841Z,78.38
2022-10-31T10:34:07.149Z,78.53
2022-10-31T10:37:02.338Z,78.06
2022-10-31T10:39:54.226Z,77.56
2022-10-31T10:42:57.859Z,77.45
2022-10-31T10:46:11.607Z,77.01
2022-10-31T10:49:20.415Z,76.62
2022-10-31T10:52:40.897Z,76.13
2022-10-31T10:55:45.842Z,75.98
2022-10-31T10:58:31.546Z,75.91
2022-10-31T11:01:17.299Z,75.82
2022-10-31T11:04:03.812Z,75.06
2022-10-31T11:07:02.697Z,74.77
2022-10-31T11:09:48.267Z,74.26
2022-10-31T11:12:34.833Z,74.10
2022-10-31T11:15:23.639Z,73.97
2022-10-31T11:18:22.467Z,73.44
2022-10-31T11:21:21.939Z,72.35
2022-10-31T11:24:10.151Z,72.81
2022-10-31T11:27:14.719Z,71.97
2022-10-31T11:30:08.304Z,72.28
2022-10-31T11:32:54.011Z,72.30
2022-10-31T11:35:41.172Z,72.25
2022-10-31T11:38:44.369Z,71.47
2022-10-31T11:41:37.447Z,71.80
2022-10-31T11:44:29.648Z,71.37
2022-10-31T11:47:17.523Z,71.37
2022-10-31T11:50:10.474Z,71.10
2022-10-31T11:52:56.570Z,71.13
2022-10-31T11:55:42.231Z,70.73
2022-10-31T11:58:28.034Z,70.51
2022-10-31T12:01:31.785Z,69.87
2022-10-31T12:04:20.140Z,69.95
2022-10-31T12:07:05.434Z,69.27
2022-10-31T12:09:51.211Z,69.18
2022-10-31T12:13:02.240Z,67.34
2022-10-31T12:15:56.494Z,66.86
2022-10-31T12:19:17.019Z,65.57
2022-10-31T12:22:31.719Z,64.60
2022-10-31T12:25:26.919Z,64.67
2022-10-31T12:28:15.446Z,65.83
2022-10-31T12:31:08.810Z,63.58
2022-10-31T12:34:09.551Z,64.35
2022-10-31T12:37:05.063Z,62.54
2022-10-31T12:40:05.696Z,61.65
2022-10-31T12:43:16.009Z,60.56
2022-10-31T12:46:04.084Z,62.62
2022-10-31T12:49:04.906Z,61.85
2022-10-31T12:51:57.810Z,62.19
2022-10-31T12:55:06.567Z,61.88
2022-10-31T12:57:59.382Z,57.04
2022-10-31T13:00:49.411Z,60.97
2022-10-31T13:03:47.652Z,59.85
2022-10-31T13:06:48.095Z,59.56
2022-10-31T13:09:47.281Z,59.78
2022-10-31T13:12:38.210Z,60.14
2022-10-31T13:15:28.025Z,60.15
2022-10-31T13:18:31.483Z,58.86
2022-10-31T13:21:26.259Z,58.90
2022-10-31T13:24:21.051Z,58.41
2022-10-31T13:27:22.947Z,57.00
2022-10-31T13:30:21.964Z,56.08
2022-10-31T13:33:18.656Z,57.92
2022-10-31T13:37:05.690Z,56.01
2022-10-31T13:40:00.031Z,57.43
2022-10-31T13:43:12.040Z,57.55
2022-10-31T13:45:57.505Z,59.24
2022-10-31T13:48:43.786Z,59.29
2022-10-31T13:51:35.319Z,59.06
2022-10-31T13:54:32.930Z,59.13
2022-10-31T13:57:33.117Z,58.72
2022-10-31T14:00:27.044Z,58.53
2022-10-31T14:03:36.185Z,57.98
2022-10-31T14:06:58.435Z,57.67
2022-10-31T14:09:55.708Z,58.17
2022-10-31T14:12:45.807Z,59.64
2022-10-31T14:15:31.907Z,59.66
2022-10-31T14:18:29.953Z,58.83
2022-10-31T14:21:17.421Z,56.73
2022-10-31T14:24:02.910Z,60.21
2022-10-31T14:26:57.317Z,59.25
2022-10-31T14:29:45.465Z,60.64
2022-10-31T14:32:36.570Z,60.79
2022-10-31T14:35:27.506Z,60.40
2022-10-31T14:38:40.704Z,58.84
2022-10-31T14:41:50.902Z,58.68
2022-10-31T14:45:00.920Z,58.99
2022-10-31T14:47:54.473Z,60.19
2022-10-31T14:51:09.726Z,60.50
2022-10-31T14:53:58.019Z,60.79
2022-10-31T14:56:50.614Z,60.52
2022-10-31T14:59:40.159Z,60.92
2022-10-31T15:02:37.967Z,60.63
2022-10-31T15:05:24.034Z,61.35
2022-10-31T15:08:30.296Z,59.83
2022-10-31T15:11:20.148Z,61.61
2022-10-31T15:14:23.954Z,60.57
2022-10-31T15:17:12.619Z,61.80
2022-10-31T15:19:58.701Z,62.81
2022-10-31T15:22:44.094Z,62.97
2022-10-31T15:25:34.928Z,62.98
2022-10-31T15:28:25.701Z,62.99
2022-10-31T15:31:17.658Z,63.26
2022-10-31T15:34:17.302Z,63.28
2022-10-31T15:37:02.613Z,64.27
2022-10-31T15:39:50.316Z,64.67
2022-10-31T15:42:41.744Z,64.33
2022-10-31T15:45:29.562Z,65.01
2022-10-31T15:48:19.181Z,64.76
2022-10-31T15:51:05.996Z,65.55
2022-10-31T15:53:54.882Z,65.55
2022-10-31T15:56:40.421Z,65.57
2022-10-31T15:59:28.418Z,65.70
2022-10-31T16:02:16.444Z,65.66
2022-10-31T16:05:03.270Z,66.19
2022-10-31T16:07:52.954Z,66.47
2022-10-31T16:10:38.370Z,67.08
2022-10-31T16:13:30.180Z,66.54
2022-10-31T16:16:35.553Z,67.08
2022-10-31T16:19:36.795Z,66.97
2022-10-31T16:22:26.538Z,67.32
2022-10-31T16:25:25.957Z,66.70
2022-10-31T16:28:20.624Z,67.40
2022-10-31T16:31:15.180Z,67.21
2022-10-31T16:34:13.743Z,67.49
2022-10-31T16:36:58.995Z,67.94
2022-10-31T16:39:44.171Z,68.09
2022-10-31T16:42:29.693Z,68.38
2022-10-31T16:45:24.624Z,68.70
2022-10-31T16:48:16.445Z,68.13
2022-10-31T16:51:02.146Z,69.01
2022-10-31T16:53:47.775Z,69.05
2022-10-31T16:56:35.325Z,69.34
2022-10-31T16:59:20.834Z,69.88
2022-10-31T17:02:12.139Z,70.11
2022-10-31T17:04:57.825Z,70.35
2022-10-31T17:07:43.832Z,69.94
2022-10-31T17:10:29.307Z,70.04
2022-10-31T17:13:19.900Z,70.06
2022-10-31T17:16:05.605Z,70.07
2022-10-31T17:18:50.912Z,71.03
2022-10-31T17:21:37.715Z,71.07
2022-10-31T17:24:22.977Z,71.39
2022-10-31T17:27:08.421Z,71.24
2022-10-31T17:29:54.089Z,71.34
2022-10-31T17:32:40.468Z,71.35
2022-10-31T17:35:26.389Z,71.78
2022-10-31T17:38:12.576Z,71.68
2022-10-31T17:40:58.207Z,71.68
2022-10-31T17:43:43.651Z,71.38
2022-10-31T17:46:29.162Z,73.47
2022-10-31T17:49:14.529Z,73.85
2022-10-31T17:52:00.176Z,74.58
2022-10-31T17:54:45.946Z,74.42
2022-10-31T17:57:36.357Z,74.63
2022-10-31T18:00:24.069Z,74.43
2022-10-31T18:03:09.693Z,74.79
2022-10-31T18:05:58.352Z,74.97
2022-10-31T18:08:44.605Z,74.99
2022-10-31T18:11:29.753Z,74.91
2022-10-31T18:14:15.046Z,74.96
2022-10-31T18:17:00.497Z,75.24
2022-10-31T18:19:45.979Z,75.20
2022-10-31T18:22:31.482Z,75.39
2022-10-31T18:25:16.895Z,74.92
2022-10-31T18:28:02.902Z,75.33
2022-10-31T18:30:48.711Z,75.52
2022-10-31T18:33:34.196Z,75.58
2022-10-31T18:36:19.671Z,75.81
2022-10-31T18:39:05.443Z,76.00
2022-10-31T18:41:50.889Z,76.10
2022-10-31T18:44:36.355Z,75.94
2022-10-31T18:47:22.635Z,76.29
2022-10-31T18:50:07.869Z,76.73
2022-10-31T18:52:53.076Z,76.45
2022-10-31T18:55:45.492Z,76.50
2022-10-31T18:58:35.181Z,76.50
2022-10-31T19:01:22.094Z,76.99
2022-10-31T19:04:07.482Z,76.73
2022-10-31T19:06:54.425Z,76.98
2022-10-31T19:09:40.366Z,76.78
2022-10-31T19:12:25.890Z,77.08
2022-10-31T19:15:11.288Z,76.75
2022-10-31T19:17:57.066Z,77.17
2022-10-31T19:20:42.567Z,77.52
2022-10-31T19:23:28.142Z,77.89
2022-10-31T19:26:14.913Z,77.60
2022-10-31T19:29:00.140Z,77.91
2022-10-31T19:31:45.647Z,77.35
2022-10-31T19:34:31.067Z,77.34
2022-10-31T19:37:16.621Z,77.82
2022-10-31T19:40:02.681Z,78.10
2022-10-31T19:42:48.043Z,77.75
2022-10-31T19:45:33.665Z,77.93
2022-10-31T19:48:19.070Z,78.04
2022-10-31T19:51:07.591Z,78.08
2022-10-31T19:53:54.180Z,78.32
2022-10-31T19:56:39.860Z,78.23
2022-10-31T19:59:26.244Z,78.82
2022-10-31T20:02:19.742Z,78.38
2022-10-31T20:05:05.869Z,78.20
2022-10-31T20:07:51.751Z,78.25
2022-10-31T20:10:37.441Z,78.63
2022-10-31T20:13:24.069Z,79.17
2022-10-31T20:16:11.848Z,79.17
2022-10-31T20:18:59.610Z,78.83
2022-10-31T20:21:45.306Z,79.06
2022-10-31T20:24:32.760Z,79.08
2022-10-31T20:27:18.093Z,78.57
2022-10-31T20:30:04.187Z,78.68
2022-10-31T20:32:50.228Z,79.45
2022-10-31T20:35:40.482Z,79.23
2022-10-31T20:38:26.018Z,78.68
2022-10-31T20:41:12.512Z,78.60
2022-10-31T20:43:58.372Z,79.19
2022-10-31T20:46:43.891Z,79.53
2022-10-31T20:49:30.611Z,79.77
2022-10-31T20:52:16.519Z,80.35
2022-10-31T20:55:02.258Z,79.78
2022-10-31T20:57:47.660Z,80.49
2022-10-31T21:00:33.599Z,80.50
2022-10-31T21:03:19.805Z,80.11
2022-10-31T21:06:05.585Z,80.30
2022-10-31T21:08:52.225Z,80.27
2022-10-31T21:11:38.113Z,80.73
2022-10-31T21:14:23.508Z,80.27
2022-10-31T21:17:09.022Z,80.90
2022-10-31T21:19:54.501Z,80.72
2022-10-31T21:22:40.278Z,80.96
2022-10-31T21:25:25.985Z,80.55
2022-10-31T21:28:12.744Z,80.47
2022-10-31T21:30:59.841Z,80.64
2022-10-31T21:33:46.617Z,80.42
2022-10-31T21:36:31.918Z,80.82
2022-10-31T21:39:17.364Z,81.20
2022-10-31T21:42:02.593Z,80.99
2022-10-31T21:44:47.959Z,81.05
2022-10-31T21:47:33.582Z,81.10
2022-10-31T21:50:19.011Z,80.87
2022-10-31T21:53:24.543Z,81.28
2022-10-31T21:56:09.973Z,81.33
2022-10-31T21:58:56.123Z,81.60
2022-10-31T22:01:41.948Z,81.23
2022-10-31T22:04:28.182Z,81.25
2022-10-31T22:07:13.649Z,81.18
2022-10-31T22:09:59.047Z,81.02
2022-10-31T22:12:44.505Z,81.21
2022-10-31T22:15:30.063Z,81.50
2022-10-31T22:18:15.374Z,81.70
2022-10-31T22:21:02.649Z,82.09
2022-10-31T22:24:01.947Z,82.19
2022-10-31T22:26:50.369Z,82.35
2022-10-31T22:29:37.637Z,81.87
2022-10-31T22:32:23.610Z,81.81
2022-10-31T22:35:09.379Z,82.10
2022-10-31T22:37:54.923Z,82.40
2022-10-31T22:40:40.586Z,82.15
2022-10-31T22:43:26.336Z,81.87
2022-10-31T22:46:14.517Z,82.41
2022-10-31T22:49:00.978Z,82.16
2022-10-31T22:51:45.984Z,82.56
2022-10-31T22:54:32.114Z,82.06
2022-10-31T22:57:17.303Z,81.93
2022-10-31T23:00:04.551Z,82.17
2022-10-31T23:02:49.855Z,82.17
2022-10-31T23:05:35.275Z,82.06
2022-10-31T23:08:20.575Z,82.25
2022-10-31T23:11:33.714Z,82.27
2022-10-31T23:14:21.131Z,82.06
2022-10-31T23:17:06.922Z,82.25
2022-10-31T23:19:52.224Z,82.40
2022-10-31T23:22:37.755Z,82.53
2022-10-31T23:25:41.639Z,82.64
2022-10-31T23:28:26.936Z,82.83
2022-10-31T23:31:12.457Z,82.81
2022-10-31T23:33:57.904Z,82.88
2022-10-31T23:36:43.370Z,82.83
2022-10-31T23:39:29.697Z,82.76
2022-10-31T23:42:15.733Z,82.56
2022-10-31T23:45:01.650Z,82.94
2022-10-31T23:47:46.841Z,83.25
2022-10-31T23:50:32.448Z,83.12
2022-10-31T23:53:17.703Z,83.44
2022-10-31T23:56:03.108Z,83.39
2022-10-31T23:58:48.661Z,83.47
